Time;durP1;ratioP1;P1;durP2;ratioP2;P2;SDS_P1;SDS_P2;PMS_P1;PMS_P2;Temp;Humidity;BMP_temperature;BMP_pressure;BME280_temperature;BME280_humidity;BME280_pressure;Samples;Min_cycle;Max_cycle;Signal;HPM_P1;HPM_P2
2021/07/31 00:00:28;;;;;;;6.55;2.53;;;;;;;19.55;55.74;98814.16;5114973;28;20208;-76
2021/07/31 00:02:55;;;;;;;9.43;2.88;;;;;;;19.64;55.53;98810.44;5114748;28;20242;-75
2021/07/31 00:05:22;;;;;;;5.28;2.13;;;;;;;19.40;56.32;98813.94;5115432;28;20539;-75
2021/07/31 00:07:48;;;;;;;6.93;3.10;;;;;;;19.36;56.58;98815.31;5115101;28;20205;-76
2021/07/31 00:10:16;;;;;;;3.75;1.95;;;;;;;19.34;56.62;98815.44;5115020;28;20190;-75
2021/07/31 00:12:43;;;;;;;6.75;2.78;;;;;;;19.32;56.59;98822.94;5115316;28;20608;-76
2021/07/31 00:15:10;;;;;;;4.90;2.60;;;;;;;19.38;56.55;98822.31;5114675;28;20297;-75
2021/07/31 00:17:37;;;;;;;5.57;2.40;;;;;;;19.30;56.27;98824.97;5114752;28;20273;-75
2021/07/31 00:20:04;;;;;;;5.00;2.72;;;;;;;19.24;56.62;98817.44;5115110;28;20269;-74
2021/07/31 00:22:31;;;;;;;7.35;2.80;;;;;;;19.13;56.98;98815.88;5115115;28;20231;-75
2021/07/31 00:24:57;;;;;;;5.47;2.50;;;;;;;19.23;56.64;98818.47;5115036;28;20185;-75
2021/07/31 00:27:25;;;;;;;6.30;2.80;;;;;;;19.20;56.41;98810.63;5114335;28;20276;-75
2021/07/31 00:29:53;;;;;;;4.35;2.53;;;;;;;19.13;56.96;98806.81;5114166;28;20644;-75
2021/07/31 00:32:20;;;;;;;7.90;2.97;;;;;;;19.20;56.72;98813.34;5114327;28;20191;-75
2021/07/31 00:34:47;;;;;;;7.38;2.20;;;;;;;19.29;56.49;98822.44;5114778;28;20198;-75
2021/07/31 00:37:13;;;;;;;3.88;1.83;;;;;;;19.13;56.92;98817.72;5114404;28;20217;-75
2021/07/31 00:39:40;;;;;;;8.50;4.30;;;;;;;19.15;56.89;98812.97;5114376;28;20197;-75
2021/07/31 00:42:07;;;;;;;2.83;2.30;;;;;;;19.17;57.03;98816.38;5114623;28;20221;-75
2021/07/31 00:44:36;;;;;;;5.40;2.42;;;;;;;19.15;56.83;98823.88;5114064;28;20237;-75
2021/07/31 00:47:03;;;;;;;5.32;2.90;;;;;;;18.89;57.78;98818.47;5114525;28;20198;-75
2021/07/31 00:49:30;;;;;;;2.53;1.90;;;;;;;18.78;58.37;98824.19;5114633;28;20191;-74
2021/07/31 00:51:57;;;;;;;6.95;2.55;;;;;;;18.66;58.64;98821.69;5114146;28;20215;-75
2021/07/31 00:54:24;;;;;;;6.40;2.50;;;;;;;18.74;58.38;98829.91;5114486;28;20545;-75
2021/07/31 00:56:51;;;;;;;5.63;2.30;;;;;;;18.70;58.68;98827.66;5113945;28;20295;-74
2021/07/31 00:59:17;;;;;;;6.05;3.17;;;;;;;18.81;58.28;98821.13;5114473;28;20184;-75
2021/07/31 01:01:45;;;;;;;7.45;3.30;;;;;;;18.75;58.70;98825.34;5113761;28;20223;-75
2021/07/31 01:04:12;;;;;;;5.10;3.25;;;;;;;18.68;58.92;98832.44;5114207;28;20199;-75
2021/07/31 01:06:39;;;;;;;4.90;2.75;;;;;;;18.72;58.91;98825.63;5113158;28;20201;-75
2021/07/31 01:09:06;;;;;;;4.13;2.67;;;;;;;18.66;58.97;98831.75;5113422;28;20307;-75
2021/07/31 01:11:34;;;;;;;6.65;3.25;;;;;;;18.51;59.43;98829.59;5113690;28;20187;-75
2021/07/31 01:14:01;;;;;;;5.65;3.35;;;;;;;18.69;58.92;98823.25;5113502;28;20234;-74
2021/07/31 01:16:27;;;;;;;7.05;3.33;;;;;;;18.45;59.55;98824.78;5113911;28;20272;-74
2021/07/31 01:18:55;;;;;;;5.38;4.05;;;;;;;18.54;59.47;98828.41;5113369;28;20702;-74
2021/07/31 01:21:36;;;;;;;8.68;3.53;;;;;;;18.28;60.50;98821.06;5113785;28;20195;-75
2021/07/31 01:24:03;;;;;;;4.43;3.70;;;;;;;18.37;60.12;98822.00;5113375;28;20184;-75
2021/07/31 01:26:30;;;;;;;7.82;3.45;;;;;;;18.25;60.34;98826.84;5113310;28;20231;-74
2021/07/31 01:28:56;;;;;;;5.68;3.15;;;;;;;18.16;60.80;98821.44;5113600;28;20608;-74
2021/07/31 01:31:23;;;;;;;5.32;3.60;;;;;;;18.10;61.12;98829.25;5113621;28;20234;-75
2021/07/31 01:33:50;;;;;;;11.40;3.30;;;;;;;18.25;60.82;98831.44;5113302;28;20550;-75
2021/07/31 01:36:16;;;;;;;4.10;3.10;;;;;;;18.30;60.60;98831.81;5113163;28;20298;-74
2021/07/31 01:38:44;;;;;;;4.60;3.22;;;;;;;18.10;61.15;98834.69;5113601;28;20183;-74
2021/07/31 01:41:12;;;;;;;9.10;3.70;;;;;;;18.17;61.22;98834.06;5113088;28;20294;-74
2021/07/31 01:43:39;;;;;;;9.88;4.20;;;;;;;18.20;61.10;98831.03;5113213;28;20200;-75
2021/07/31 01:46:05;;;;;;;5.10;3.13;;;;;;;18.31;60.40;98837.09;5113527;28;20544;-76
2021/07/31 01:48:32;;;;;;;6.25;2.92;;;;;;;18.16;60.77;98825.06;5113442;28;20648;-75
2021/07/31 01:50:59;;;;;;;6.60;3.13;;;;;;;17.99;61.40;98834.91;5112779;28;20659;-75
2021/07/31 01:53:25;;;;;;;6.20;3.15;;;;;;;18.17;60.75;98834.91;5113071;28;20181;-75
2021/07/31 01:55:53;;;;;;;6.32;2.70;;;;;;;18.17;60.81;98832.19;5112586;28;20204;-75
2021/07/31 01:58:20;;;;;;;4.93;2.90;;;;;;;18.36;60.23;98828.47;5112922;28;20275;-75
2021/07/31 02:00:46;;;;;;;6.10;3.10;;;;;;;18.12;60.96;98832.66;5112452;28;20185;-75
2021/07/31 02:03:13;;;;;;;5.60;3.83;;;;;;;18.30;60.33;98831.81;5112972;28;20231;-75
2021/07/31 02:05:40;;;;;;;5.93;2.88;;;;;;;18.29;60.72;98822.78;5112858;28;20185;-75
2021/07/31 02:08:06;;;;;;;8.35;3.10;;;;;;;18.21;60.57;98830.03;5113168;28;20179;-75
2021/07/31 02:10:33;;;;;;;4.18;2.90;;;;;;;18.17;60.85;98829.47;5112574;28;20203;-75
2021/07/31 02:13:01;;;;;;;5.55;3.20;;;;;;;18.11;61.00;98824.63;5112678;28;20180;-75
2021/07/31 02:15:27;;;;;;;3.75;2.40;;;;;;;17.95;61.56;98822.63;5113089;28;20202;-75
2021/07/31 02:17:54;;;;;;;6.90;3.65;;;;;;;18.03;61.42;98814.53;5112697;28;20657;-75
2021/07/31 02:20:21;;;;;;;5.82;2.60;;;;;;;18.03;61.36;98809.09;5112430;28;20202;-75
2021/07/31 02:22:47;;;;;;;5.32;2.80;;;;;;;17.95;61.77;98816.31;5112185;28;20308;-75
2021/07/31 02:25:14;;;;;;;5.22;2.75;;;;;;;17.98;61.73;98816.88;5112565;28;20195;-74
2021/07/31 02:27:41;;;;;;;6.53;2.53;;;;;;;17.92;61.92;98818.34;5112462;28;20700;-75
2021/07/31 02:30:10;;;;;;;2.67;2.38;;;;;;;17.86;62.13;98818.97;5112892;28;20713;-74
2021/07/31 02:32:37;;;;;;;6.95;3.70;;;;;;;18.00;61.72;98817.59;5112787;28;20287;-74
2021/07/31 02:35:04;;;;;;;4.18;2.78;;;;;;;17.99;61.76;98813.13;5112334;28;20230;-75
2021/07/31 02:37:31;;;;;;;5.82;2.42;;;;;;;17.90;61.95;98812.19;5112823;28;20676;-75
2021/07/31 02:39:57;;;;;;;6.63;3.72;;;;;;;17.85;62.10;98816.41;5112480;28;20187;-75
2021/07/31 02:42:24;;;;;;;3.35;3.03;;;;;;;17.81;62.20;98813.13;5112450;28;20233;-74
2021/07/31 02:44:51;;;;;;;4.63;3.88;;;;;;;17.80;62.36;98808.66;5112164;28;20213;-74
2021/07/31 02:47:19;;;;;;;3.80;3.40;;;;;;;17.67;62.93;98813.63;5112706;28;20180;-74
2021/07/31 02:49:45;;;;;;;3.65;2.83;;;;;;;17.77;62.64;98810.81;5112777;28;20223;-75
2021/07/31 02:52:12;;;;;;;7.97;4.65;;;;;;;17.59;63.30;98817.13;5112780;28;20218;-75
2021/07/31 02:54:38;;;;;;;6.53;3.75;;;;;;;17.63;63.31;98807.63;5112691;28;20196;-75
2021/07/31 02:57:05;;;;;;;5.55;3.50;;;;;;;17.53;63.67;98801.41;5112634;28;20613;-75
2021/07/31 02:59:32;;;;;;;6.13;4.22;;;;;;;17.57;63.68;98810.09;5112562;28;20660;-75
2021/07/31 03:01:59;;;;;;;9.95;3.80;;;;;;;17.54;63.83;98800.38;5112043;28;20192;-75
2021/07/31 03:04:27;;;;;;;6.40;3.65;;;;;;;17.41;64.22;98800.75;5112073;28;20657;-75
2021/07/31 03:06:54;;;;;;;4.68;3.30;;;;;;;17.32;64.75;98798.06;5114921;28;20192;-75
2021/07/31 03:09:20;;;;;;;9.20;3.40;;;;;;;17.34;64.62;98798.78;5116509;28;20769;-75
2021/07/31 03:11:47;;;;;;;5.18;2.97;;;;;;;17.28;65.25;98802.97;5115959;28;20199;-74
2021/07/31 03:14:13;;;;;;;5.75;3.15;;;;;;;17.20;65.67;98806.44;5115995;28;20186;-75
2021/07/31 03:16:40;;;;;;;5.60;3.22;;;;;;;17.05;66.09;98800.66;5116357;28;20241;-74
2021/07/31 03:19:07;;;;;;;3.70;3.13;;;;;;;17.28;65.29;98798.38;5115972;28;20322;-75
2021/07/31 03:21:35;;;;;;;8.70;5.72;;;;;;;17.24;65.60;98799.69;5116155;28;20187;-74
2021/07/31 03:24:01;;;;;;;5.05;3.05;;;;;;;17.01;66.57;98801.97;5115733;28;20204;-74
2021/07/31 03:26:28;;;;;;;10.18;3.20;;;;;;;16.93;66.85;98798.25;5116647;28;20199;-75
2021/07/31 03:28:55;;;;;;;5.55;2.75;;;;;;;16.92;67.10;98796.56;5115766;28;20184;-75
2021/07/31 03:31:22;;;;;;;7.28;3.63;;;;;;;17.06;66.82;98798.78;5115476;28;20271;-75
2021/07/31 03:33:49;;;;;;;4.47;3.25;;;;;;;17.08;66.54;98803.06;5115679;28;20201;-74
2021/07/31 03:36:16;;;;;;;5.20;3.58;;;;;;;17.03;66.98;98794.50;5115033;28;20195;-74
2021/07/31 03:38:44;;;;;;;9.25;3.28;;;;;;;16.99;66.89;98794.97;5115620;28;20183;-74
2021/07/31 03:41:10;;;;;;;6.72;3.35;;;;;;;16.79;67.72;98796.84;5114854;28;20203;-75
2021/07/31 03:43:37;;;;;;;5.80;3.17;;;;;;;16.85;67.57;98793.59;5115284;28;20207;-74
2021/07/31 03:46:05;;;;;;;3.88;3.10;;;;;;;16.91;67.25;98805.72;5115790;28;20701;-74
2021/07/31 03:48:32;;;;;;;3.75;3.30;;;;;;;17.01;66.80;98803.81;5115166;28;20183;-74
2021/07/31 03:50:58;;;;;;;7.45;2.95;;;;;;;17.09;66.50;98810.25;5115762;28;20193;-74
2021/07/31 03:53:25;;;;;;;6.38;2.80;;;;;;;17.19;66.06;98810.19;5115444;28;20691;-75
2021/07/31 03:55:53;;;;;;;6.45;2.70;;;;;;;17.14;66.41;98804.34;5115475;28;20186;-75
2021/07/31 03:58:20;;;;;;;3.30;2.90;;;;;;;17.23;66.29;98808.00;5115466;28;20610;-75
2021/07/31 04:00:46;;;;;;;4.57;2.95;;;;;;;17.07;66.48;98795.94;5115072;28;20270;-75
2021/07/31 04:03:13;;;;;;;4.00;3.00;;;;;;;17.17;66.28;98798.59;5115278;28;20222;-75
2021/07/31 04:05:39;;;;;;;8.35;3.35;;;;;;;17.16;66.40;98809.63;5115450;28;20614;-75
2021/07/31 04:08:06;;;;;;;6.93;3.25;;;;;;;17.27;66.08;98810.25;5115025;28;20203;-74
2021/07/31 04:10:33;;;;;;;6.07;2.35;;;;;;;17.09;66.58;98812.06;5115432;28;20600;-75
2021/07/31 04:13:01;;;;;;;6.60;2.72;;;;;;;17.33;65.69;98811.53;5115671;28;20253;-75
2021/07/31 04:15:27;;;;;;;7.68;3.10;;;;;;;17.43;65.10;98814.19;5114880;28;20205;-75
2021/07/31 04:17:54;;;;;;;4.47;3.03;;;;;;;17.43;65.07;98809.59;5113843;28;20237;-75
2021/07/31 04:20:20;;;;;;;4.10;2.67;;;;;;;17.54;64.52;98807.69;5114730;28;20183;-75
2021/07/31 04:22:47;;;;;;;4.35;2.85;;;;;;;17.45;64.88;98809.47;5114403;28;20207;-75
2021/07/31 04:25:14;;;;;;;6.65;3.20;;;;;;;17.47;64.95;98818.34;5114245;28;20187;-74
2021/07/31 04:27:40;;;;;;;4.63;3.38;;;;;;;17.58;64.75;98818.13;5114655;28;20199;-74
2021/07/31 04:30:09;;;;;;;5.10;3.22;;;;;;;17.59;64.67;98816.25;5114886;28;20190;-74
2021/07/31 04:32:36;;;;;;;6.25;2.42;;;;;;;17.62;63.99;98821.41;5114884;28;20626;-74
2021/07/31 04:35:03;;;;;;;6.22;2.70;;;;;;;17.63;63.96;98825.81;5114752;28;20538;-75
2021/07/31 04:37:29;;;;;;;6.50;3.30;;;;;;;17.52;64.45;98824.16;5114837;28;20191;-75
2021/07/31 04:39:56;;;;;;;3.53;2.85;;;;;;;17.50;64.60;98829.78;5114712;28;20306;-75
2021/07/31 04:42:22;;;;;;;4.38;2.90;;;;;;;17.45;64.93;98832.06;5114244;28;20270;-74
2021/07/31 04:44:49;;;;;;;4.10;2.72;;;;;;;17.44;65.05;98827.66;5114352;28;20558;-74
2021/07/31 04:47:17;;;;;;;8.38;3.50;;;;;;;17.51;64.94;98827.91;5113764;28;20240;-75
2021/07/31 04:49:43;;;;;;;3.63;2.88;;;;;;;17.45;65.09;98839.41;5114115;28;20195;-74
2021/07/31 04:52:10;;;;;;;6.00;2.78;;;;;;;17.61;64.77;98830.56;5114915;28;20585;-75
2021/07/31 04:54:41;;;;;;;5.47;2.70;;;;;;;17.65;64.67;98838.28;5113482;28;20222;-75
2021/07/31 04:57:09;;;;;;;4.30;2.85;;;;;;;17.62;65.13;98832.28;5113498;28;20229;-74
2021/07/31 04:59:35;;;;;;;5.93;3.78;;;;;;;17.62;65.67;98832.28;5102504;28;20280;-74
2021/07/31 05:02:02;;;;;;;5.85;3.40;;;;;;;17.53;66.31;98836.78;5113667;28;20294;-74
2021/07/31 05:04:31;;;;;;;7.93;3.05;;;;;;;17.53;66.69;98844.09;5113982;28;20222;-74
2021/07/31 05:06:58;;;;;;;3.53;3.08;;;;;;;17.51;66.85;98838.78;5114143;28;20191;-75
2021/07/31 05:09:24;;;;;;;4.70;3.05;;;;;;;17.46;66.89;98844.69;5113396;28;20278;-75
2021/07/31 05:11:51;;;;;;;9.40;3.65;;;;;;;17.19;68.20;98845.53;5113244;28;20609;-74
2021/07/31 05:14:17;;;;;;;4.93;3.38;;;;;;;17.22;68.27;98842.50;5113828;27;20195;-75
2021/07/31 05:16:44;;;;;;;4.32;3.20;;;;;;;17.30;67.96;98847.22;5113398;27;20633;-75
2021/07/31 05:19:11;;;;;;;4.10;3.20;;;;;;;17.34;67.97;98853.19;5112894;28;20322;-75
2021/07/31 05:21:39;;;;;;;9.45;3.38;;;;;;;17.41;67.81;98849.75;5113153;28;20188;-75
2021/07/31 05:24:05;;;;;;;6.18;3.00;;;;;;;17.46;67.63;98852.00;5113498;28;20203;-75
2021/07/31 05:26:32;;;;;;;4.68;2.90;;;;;;;17.40;67.69;98847.16;5113740;28;20290;-74
2021/07/31 05:28:58;;;;;;;5.35;3.00;;;;;;;17.86;66.34;98846.22;5112772;28;20286;-74
2021/07/31 05:31:25;;;;;;;9.02;2.97;;;;;;;18.30;64.55;98848.16;5112982;28;20206;-74
2021/07/31 05:33:51;;;;;;;6.05;2.65;;;;;;;18.64;63.01;98851.00;5112903;28;20195;-74
2021/07/31 05:36:18;;;;;;;8.02;3.15;;;;;;;18.75;62.49;98856.19;5113225;28;20185;-74
2021/07/31 05:38:46;;;;;;;4.50;3.00;;;;;;;18.64;62.63;98850.13;5110823;28;20192;-74
2021/07/31 05:41:14;;;;;;;5.57;3.20;;;;;;;18.50;63.15;98860.59;5113135;28;20612;-74
2021/07/31 05:43:40;;;;;;;4.25;3.10;;;;;;;18.52;63.29;98861.31;5113125;28;20277;-75
2021/07/31 05:46:07;;;;;;;4.47;2.90;;;;;;;18.76;62.25;98854.31;5113192;28;20204;-75
2021/07/31 05:48:33;;;;;;;4.95;2.85;;;;;;;18.79;62.26;98864.94;5111697;28;20203;-74
2021/07/31 05:51:01;;;;;;;7.07;2.90;;;;;;;18.83;62.03;98854.56;5112245;28;20204;-74
2021/07/31 05:53:27;;;;;;;5.78;2.63;;;;;;;18.65;62.85;98860.88;5113298;27;20192;-74
2021/07/31 05:55:56;;;;;;;4.95;2.63;;;;;;;18.61;63.17;98850.44;5111806;28;20203;-75
2021/07/31 05:58:23;;;;;;;5.43;3.50;;;;;;;18.83;62.63;98860.84;5111842;28;20637;-75
2021/07/31 06:00:49;;;;;;;6.95;3.28;;;;;;;18.90;61.80;98850.16;5111182;28;20218;-75
2021/07/31 06:03:16;;;;;;;5.03;2.90;;;;;;;19.01;61.48;98854.50;5112487;28;20201;-75
2021/07/31 06:05:43;;;;;;;5.30;2.60;;;;;;;19.18;60.47;98856.31;5113751;28;20213;-75
2021/07/31 06:08:09;;;;;;;5.55;2.80;;;;;;;19.17;60.18;98862.78;5112471;28;20273;-75
2021/07/31 06:10:36;;;;;;;5.25;2.53;;;;;;;19.15;60.58;98862.97;5112658;28;20204;-75
2021/07/31 06:13:05;;;;;;;6.90;2.75;;;;;;;19.50;59.24;98865.69;5111924;28;20229;-76
2021/07/31 06:15:31;;;;;;;3.35;2.65;;;;;;;19.43;59.41;98870.94;5112744;28;20178;-75
2021/07/31 06:17:58;;;;;;;3.55;2.47;;;;;;;19.30;59.93;98863.19;5111961;28;20516;-75
2021/07/31 06:20:24;;;;;;;4.80;2.78;;;;;;;19.05;61.02;98858.63;5112517;28;20232;-75
2021/07/31 06:22:51;;;;;;;5.55;3.15;;;;;;;18.79;61.97;98869.53;5112253;28;20207;-75
2021/07/31 06:25:18;;;;;;;7.53;2.70;;;;;;;18.71;62.46;98865.69;5112523;28;20214;-75
2021/07/31 06:27:45;;;;;;;4.82;2.42;;;;;;;18.74;62.36;98867.25;5111756;28;20190;-75
2021/07/31 06:30:13;;;;;;;7.05;3.15;;;;;;;18.63;62.83;98864.78;5111958;28;20775;-75
2021/07/31 06:32:39;;;;;;;6.72;3.17;;;;;;;18.85;62.38;98877.91;5112328;28;20634;-75
2021/07/31 06:35:07;;;;;;;3.30;3.00;;;;;;;18.97;62.12;98870.31;5112189;28;20642;-76
2021/07/31 06:37:33;;;;;;;5.05;2.70;;;;;;;19.11;61.68;98874.38;5112207;28;20200;-76
2021/07/31 06:40:00;;;;;;;7.65;3.53;;;;;;;19.35;60.98;98870.88;5098165;28;20194;-76
2021/07/31 06:42:26;;;;;;;7.07;3.70;;;;;;;19.33;60.66;98867.47;5096090;28;20193;-76
2021/07/31 06:44:53;;;;;;;4.22;2.90;;;;;;;19.30;61.08;98865.91;5116419;28;20638;-76
2021/07/31 06:47:21;;;;;;;4.80;3.03;;;;;;;19.44;60.84;98871.78;5116670;28;20212;-76
2021/07/31 06:49:48;;;;;;;5.18;2.88;;;;;;;19.56;60.17;98862.31;5116445;28;20229;-76
2021/07/31 06:52:15;;;;;;;4.68;3.20;;;;;;;19.73;59.83;98875.00;5115896;28;20294;-77
2021/07/31 06:54:41;;;;;;;6.57;3.20;;;;;;;19.86;59.52;98871.81;5115872;28;20893;-76
2021/07/31 06:57:08;;;;;;;10.98;2.78;;;;;;;19.54;60.49;98859.72;5115783;28;20212;-76
2021/07/31 06:59:35;;;;;;;4.30;2.83;;;;;;;19.88;59.69;98866.19;5116689;28;20193;-77
2021/07/31 07:02:01;;;;;;;8.15;2.97;;;;;;;20.12;59.00;98868.09;5116160;28;20204;-76
2021/07/31 07:04:29;;;;;;;5.63;2.95;;;;;;;19.90;59.43;98870.47;5115884;28;20565;-77
2021/07/31 07:06:56;;;;;;;5.45;2.42;;;;;;;20.42;57.69;98877.56;5115392;28;20180;-76
2021/07/31 07:09:23;;;;;;;5.80;2.58;;;;;;;20.71;56.83;98870.75;5116443;27;20199;-76
2021/07/31 07:11:49;;;;;;;7.35;3.83;;;;;;;21.12;55.38;98866.09;5115310;28;20198;-76
2021/07/31 07:14:16;;;;;;;7.68;2.70;;;;;;;20.53;56.79;98879.97;5115378;28;20539;-76
2021/07/31 07:16:42;;;;;;;5.13;2.50;;;;;;;20.30;56.76;98867.97;5115334;28;20228;-76
2021/07/31 07:19:09;;;;;;;6.60;2.28;;;;;;;20.01;57.37;98877.47;5115275;28;20242;-76
2021/07/31 07:21:37;;;;;;;3.03;1.85;;;;;;;19.97;57.48;98873.38;5115770;28;20210;-77
2021/07/31 07:24:20;;;;;;;5.05;2.03;;;;;;;19.94;57.79;98876.44;5115328;28;20222;-76
2021/07/31 07:26:47;;;;;;;3.13;2.83;;;;;;;20.27;56.83;98881.97;5115116;28;20236;-76
2021/07/31 07:29:14;;;;;;;3.58;2.25;;;;;;;20.64;55.62;98886.13;5114502;28;20658;-75
2021/07/31 07:31:40;;;;;;;4.18;2.60;;;;;;;21.01;54.83;98882.88;5114352;28;20678;-76
2021/07/31 07:34:07;;;;;;;4.70;2.70;;;;;;;21.28;53.84;98878.88;5115420;28;20179;-77
2021/07/31 07:36:34;;;;;;;8.52;2.45;;;;;;;21.15;53.48;98884.88;5115117;28;20183;-76
2021/07/31 07:39:03;;;;;;;4.03;2.60;;;;;;;20.85;53.93;98881.00;5115421;28;20230;-76
2021/07/31 07:41:29;;;;;;;2.80;2.00;;;;;;;20.78;53.92;98879.97;5115219;28;20523;-76
2021/07/31 07:43:56;;;;;;;3.73;1.70;;;;;;;20.94;53.17;98879.97;5115531;28;20207;-75
2021/07/31 07:46:23;;;;;;;5.00;2.20;;;;;;;20.90;53.27;98864.91;5115250;28;20529;-75
2021/07/31 07:48:49;;;;;;;4.15;2.80;;;;;;;20.31;54.62;98875.16;5115256;28;20198;-76
2021/07/31 07:51:16;;;;;;;4.07;2.10;;;;;;;20.09;56.40;98879.38;5114980;28;20218;-75
2021/07/31 07:53:46;;;;;;;6.43;2.05;;;;;;;20.14;56.73;98877.00;5113823;28;20484;-76
2021/07/31 07:56:14;;;;;;;3.60;2.10;;;;;;;20.34;56.32;98874.81;5115130;28;20637;-75
2021/07/31 07:58:40;;;;;;;3.90;2.05;;;;;;;20.67;55.28;98872.09;5115036;28;20187;-75
2021/07/31 08:01:10;;;;;;;2.85;2.30;;;;;;;21.13;53.35;98877.88;5114838;28;20901;-75
2021/07/31 08:03:37;;;;;;;3.10;2.33;;;;;;;21.31;52.59;98881.25;5114833;28;20190;-75
2021/07/31 08:06:03;;;;;;;2.97;2.38;;;;;;;20.99;53.33;98869.34;5115514;28;20184;-76
2021/07/31 08:08:30;;;;;;;5.85;3.20;;;;;;;21.17;52.73;98874.63;5115204;28;20203;-76
2021/07/31 08:10:56;;;;;;;3.70;2.40;;;;;;;20.95;53.21;98876.19;5114852;28;20222;-76
2021/07/31 08:13:24;;;;;;;4.30;2.45;;;;;;;21.23;52.77;98873.06;5116617;28;20202;-76
2021/07/31 08:15:51;;;;;;;5.00;2.40;;;;;;;21.22;53.03;98882.31;5113716;28;20282;-74
2021/07/31 08:18:17;;;;;;;3.70;2.07;;;;;;;20.85;53.87;98878.28;5113748;28;20222;-75
2021/07/31 08:20:44;;;;;;;3.60;2.17;;;;;;;20.82;53.61;98881.34;5115134;28;20437;-75
2021/07/31 08:23:11;;;;;;;4.13;2.20;;;;;;;21.07;53.25;98875.84;5114544;28;20206;-77
2021/07/31 08:25:37;;;;;;;3.40;2.40;;;;;;;21.10;53.58;98875.47;5114587;28;20473;-75
2021/07/31 08:28:04;;;;;;;2.80;1.90;;;;;;;20.93;53.58;98867.31;5114441;28;20464;-76
2021/07/31 08:30:33;;;;;;;5.72;3.72;;;;;;;21.48;52.81;98875.75;5114511;28;20333;-77
2021/07/31 08:32:59;;;;;;;2.83;2.10;;;;;;;21.36;52.74;98862.41;5114311;28;20564;-77
2021/07/31 08:35:26;;;;;;;3.70;2.55;;;;;;;21.38;52.92;98871.28;5114563;28;20431;-77
2021/07/31 08:37:52;;;;;;;4.50;2.60;;;;;;;21.67;52.31;98866.28;5114621;28;20216;-77
2021/07/31 08:40:20;;;;;;;7.22;2.35;;;;;;;21.77;51.82;98864.16;5114208;28;20321;-77
2021/07/31 08:42:46;;;;;;;3.03;2.33;;;;;;;21.92;50.55;98861.53;5113840;28;20689;-76
2021/07/31 08:45:15;;;;;;;25.53;5.70;;;;;;;22.21;49.94;98869.06;5112472;28;20829;-77
2021/07/31 08:47:46;;;;;;;3.17;2.87;;;;;;;21.52;51.64;98877.09;5114067;28;20540;-77
2021/07/31 08:50:13;;;;;;;3.27;2.83;;;;;;;21.52;51.33;98866.16;5113910;28;20508;-76
2021/07/31 08:52:41;;;;;;;3.23;2.47;;;;;;;21.83;51.03;98874.41;5114038;28;20421;-77
2021/07/31 08:55:09;;;;;;;6.50;2.70;;;;;;;21.90;51.24;98875.41;5113718;28;20852;-76
2021/07/31 08:57:35;;;;;;;5.70;2.73;;;;;;;21.83;51.35;98880.72;5113442;28;20429;-75
2021/07/31 09:00:02;;;;;;;3.33;2.20;;;;;;;22.04;51.35;98879.25;5113313;28;20453;-75
2021/07/31 09:02:40;;;;;;;3.10;2.77;;;;;;;21.79;51.78;98892.22;5113446;28;20432;-77
2021/07/31 09:05:10;;;;;;;3.20;2.20;;;;;;;21.92;51.05;98883.44;5113420;28;20830;-76
2021/07/31 09:07:37;;;;;;;4.07;2.30;;;;;;;21.52;51.48;98886.16;5114047;28;20429;-76
2021/07/31 09:10:24;;;;;;;6.33;2.60;;;;;;;22.14;49.80;98876.28;5113759;28;20421;-76
2021/07/31 09:12:55;;;;;;;3.80;2.00;;;;;;;22.16;48.59;98880.56;5114252;28;20448;-76
2021/07/31 09:15:29;;;;;;;4.13;2.50;;;;;;;22.49;48.16;98888.59;5113494;28;20509;-77
2021/07/31 09:18:18;;;;;;;3.03;2.50;;;;;;;23.02;47.27;98886.81;5113148;28;20472;-75
2021/07/31 09:20:53;;;;;;;2.83;2.00;;;;;;;22.95;46.73;98879.44;5112432;28;20425;-76
2021/07/31 09:23:20;;;;;;;1.73;1.60;;;;;;;22.07;48.23;98881.66;5112948;28;20476;-77
2021/07/31 09:26:00;;;;;;;2.43;1.97;;;;;;;21.64;49.00;98876.56;5112633;28;20480;-77
2021/07/31 09:28:26;;;;;;;2.70;2.08;;;;;;;21.48;49.22;98873.84;5112551;28;20432;-77
2021/07/31 09:30:53;;;;;;;2.63;2.00;;;;;;;21.58;49.29;98863.56;5112761;28;20191;-76
2021/07/31 09:33:20;;;;;;;4.00;2.60;;;;;;;21.39;50.21;98878.50;5112718;28;20804;-76
2021/07/31 09:35:49;;;;;;;4.57;2.65;;;;;;;21.66;49.73;98884.56;5112409;28;20455;-76
2021/07/31 09:38:16;;;;;;;2.20;2.00;;;;;;;21.64;50.17;98890.25;5112520;28;20681;-77
2021/07/31 09:40:42;;;;;;;2.60;2.00;;;;;;;21.89;49.86;98878.31;5112297;28;20523;-76
2021/07/31 09:43:14;;;;;;;4.17;2.30;;;;;;;22.34;48.31;98885.78;5112185;28;20792;-77
2021/07/31 09:45:42;;;;;;;2.60;2.30;;;;;;;22.62;48.14;98887.97;5111832;28;20481;-77
2021/07/31 09:48:09;;;;;;;3.67;2.23;;;;;;;22.29;48.23;98890.94;5112268;28;20421;-76
2021/07/31 09:50:38;;;;;;;4.00;2.63;;;;;;;22.40;47.98;98882.31;5111704;28;20497;-77
2021/07/31 09:53:11;;;;;;;3.90;2.43;;;;;;;22.76;47.78;98886.31;5111500;28;20432;-76
2021/07/31 09:55:44;;;;;;;4.57;2.47;;;;;;;22.71;47.60;98886.03;5112029;28;20509;-76
2021/07/31 09:58:14;;;;;;;5.03;2.03;;;;;;;22.47;47.85;98877.78;5112077;28;20436;-77
2021/07/31 10:00:41;;;;;;;4.23;2.13;;;;;;;22.61;47.71;98873.41;5112041;28;20445;-76
2021/07/31 10:03:10;;;;;;;4.10;2.70;;;;;;;22.70;47.14;98885.16;5112287;28;20421;-77
2021/07/31 10:05:38;;;;;;;3.43;1.97;;;;;;;22.33;48.15;98872.25;5111605;28;20472;-77
2021/07/31 10:08:06;;;;;;;4.50;2.47;;;;;;;22.65;47.43;98874.72;5111752;28;20516;-77
2021/07/31 10:10:35;;;;;;;3.90;2.13;;;;;;;22.88;46.97;98871.97;5111853;28;20937;-76
2021/07/31 10:13:01;;;;;;;7.33;2.30;;;;;;;22.79;47.42;98863.97;5111544;28;20521;-77
2021/07/31 10:15:28;;;;;;;2.87;2.67;;;;;;;22.65;47.75;98858.25;5111015;28;20445;-76
2021/07/31 10:17:55;;;;;;;3.80;2.10;;;;;;;23.14;46.87;98872.63;5111760;28;20472;-77
2021/07/31 10:20:26;;;;;;;4.27;2.30;;;;;;;22.93;47.34;98862.31;5111749;28;20445;-77
2021/07/31 10:22:53;;;;;;;3.87;2.47;;;;;;;23.21;47.11;98870.81;5112203;28;20528;-77
2021/07/31 10:25:20;;;;;;;4.80;2.50;;;;;;;22.92;47.38;98864.19;5111824;28;20559;-77
2021/07/31 10:27:49;;;;;;;3.73;2.70;;;;;;;22.80;48.14;98862.97;5111817;28;20444;-76
2021/07/31 10:30:33;;;;;;;4.63;2.47;;;;;;;22.97;47.60;98860.91;5111872;28;20457;-77
2021/07/31 10:33:00;;;;;;;4.13;2.53;;;;;;;23.31;46.65;98863.13;5112298;28;20462;-77
2021/07/31 10:35:35;;;;;;;5.57;2.77;;;;;;;23.41;46.60;98860.97;5111282;28;20444;-77
2021/07/31 10:38:04;;;;;;;4.70;2.77;;;;;;;23.42;46.51;98865.41;5111503;28;20435;-77
2021/07/31 10:40:56;;;;;;;4.00;2.90;;;;;;;23.48;46.43;98861.91;5111511;28;20525;-76
2021/07/31 10:43:27;;;;;;;2.70;2.50;;;;;;;23.58;45.91;98864.34;5111759;28;20868;-74
2021/07/31 10:46:20;;;;;;;3.60;2.50;;;;;;;23.95;45.86;98862.56;5111558;28;20551;-77
2021/07/31 10:48:46;;;;;;;4.00;2.40;;;;;;;24.32;45.01;98869.72;5111814;28;20461;-75
2021/07/31 10:51:43;;;;;;;3.43;2.50;;;;;;;23.66;45.85;98871.66;5111703;28;20871;-76
2021/07/31 10:54:09;;;;;;;3.63;2.50;;;;;;;23.34;45.55;98867.38;5111422;28;20552;-77
2021/07/31 10:56:56;;;;;;;3.27;1.90;;;;;;;23.22;46.49;98858.78;5110861;28;20425;-77
2021/07/31 10:59:24;;;;;;;4.43;2.90;;;;;;;23.32;46.43;98873.09;5111189;28;20674;-77
2021/07/31 11:02:29;;;;;;;3.13;2.80;;;;;;;23.26;46.71;98862.84;5111296;28;20425;-76
2021/07/31 11:04:58;;;;;;;2.23;2.03;;;;;;;23.39;46.20;98843.81;5111232;28;20567;-76
2021/07/31 11:07:29;;;;;;;3.60;2.40;;;;;;;23.89;44.54;98855.91;5111162;28;20441;-77
2021/07/31 11:10:44;;;;;;;3.27;2.33;;;;;;;24.23;43.28;98857.16;5111385;28;20508;-77
2021/07/31 11:13:11;;;;;;;3.40;2.07;;;;;;;24.20;43.05;98852.03;5111344;28;20460;-77
2021/07/31 11:15:58;;;;;;;2.70;1.90;;;;;;;24.33;43.19;98865.94;5110781;28;20508;-77
2021/07/31 11:18:26;;;;;;;4.00;2.33;;;;;;;24.25;43.04;98855.06;5110820;28;20456;-77
2021/07/31 11:20:54;;;;;;;2.90;2.60;;;;;;;23.94;44.23;98853.44;5110907;28;20531;-77
2021/07/31 11:23:21;;;;;;;4.27;3.43;;;;;;;24.01;44.46;98859.00;5110925;28;20441;-76
2021/07/31 11:25:47;;;;;;;2.87;2.63;;;;;;;24.17;43.76;98863.41;5111019;28;20460;-77
2021/07/31 11:28:14;;;;;;;2.23;2.00;;;;;;;23.60;44.17;98861.44;5112306;28;20439;-75
2021/07/31 11:30:43;;;;;;;3.43;3.03;;;;;;;23.20;45.14;98860.84;5114910;28;20800;-77
2021/07/31 11:33:17;;;;;;;3.73;2.40;;;;;;;22.65;46.72;98868.41;5114884;28;20428;-75
2021/07/31 11:35:44;;;;;;;3.77;2.17;;;;;;;23.26;45.24;98866.44;5115030;28;20425;-77
2021/07/31 11:38:38;;;;;;;4.53;2.57;;;;;;;23.28;45.33;98860.78;5114973;28;20789;-76